Ana Sayfa
METAR-TAF:

METAR-TAF

Havaalanları :

Kastamonu Havalimanı

Kastamonu, Türkiye

Enlem: 41-19-01N, Boylam: 33-47-46E, yükseklik: 1073 m

Güncel hava durumu gözlemi

Rapor saat 08:50 UTC de 9 saat ve 5 dakika önce yapıldı.
Rüzgar kuzeydan 10 kt, kuzeybatı ve doğu/kuzeydoğu arasında değişken
Sıcaklık 25°C
Nem 47%
Basınç 1013 hPa
Görüş mesafesi 10 km veya daha fazla
3300 ft yükseklikte parçalı bulutlu

METAR: LTAL 180850Z 35010KT 320V060 9999 SCT033 25/13 Q1013

Saat: 20:55 (17:55 UTC)

Tahmin

Rapor saat 13:40 UTC de 4 saat ve 15 dakika önce yapıldı.
Ayın 18'si saat 15 UTC'den ayın 18'si saat 24 UTC'ye kadar geçerli Tahmin
Rüzgar kuzey/kuzeybatıdan 12 kt
Görüş mesafesi 10 km veya daha fazla
3300 ft yükseklikte parçalı bulutlu

TAF: LTAL 181340Z 1815/1824 33012KT 9999 SCT033

4.000'den fazla havaalanı için hava durumu gözlemleri ve tahminleri (METAR ve TAF raporları).

Kullanılabilir istasyonlar harita üzerinde sarı ve kırmızı noktalarla gösterilir.

İstasyonun adını görmek için fareyi noktanın üzerinde gezdirin.

Sonrasında hava gözlem ve tahminlerini görmek için tıklayın.

Haritayı değiştirmek için: yaklaştırmak için siyah artı işaretli yeşil düğmeye ve uzaklaştırmak için de eksi işaretli düğmeye hızla tıklayın; bitişik haritalar için yeşil okları kullanın.


METAR-TAF: